Pagina principale
METAR-TAF:

METAR-TAF

Aeroporti :

Helsinki, Finlandia

Aeroporto di Helsinki-Vantaa

latitudine: 60-19N, longitudine: 024-58E, altezza: 51 m

Osservazione

Il bollettino è stato emesso 32 minuti fa, alle 13:20 UTC
Vento 11 kt da nord
Temperature -11°C
Umidità 61%
Pressione 1036 hPa
Visibilità 10 km o più
nessuna nube inferiore a 1500 m e nessun cumulonembo

METAR: EFHK 241320Z 01011KT CAVOK M11/M17 Q1036 NOSIG

Ora: 15:52 (13:52 UTC)

Previsione

Il bollettino è stato emesso 2 ore e 21 minuti fa, alle 11:31 UTC
Previsione valida dal 24 alle 12 UTC al 25 alle 12 UTC
Vento 8 kt da nord
Visibilità 10 km o più
nessuna nube inferiore a 1500 m e nessun cumulonembo

TAF: EFHK 241131Z 2412/2512 01008KT CAVOK

Osservazioni e previsioni meteorologiche di più di 4000 aeroporti (messaggi METAR e TAF).

Le stazioni disponibili sono rappresentate dai dischi gialli e rossi sulla carta.

Puntare il mouse per vedere il nome della stazione.

Clicca sopra per visualizzare le osservazioni e previsioni meteorologiche.

Per cambiare la mappa : fare clic sui pulsanti verdi con una croce nera per ingrandire, il pulsante verde con un trattino per diminuire, o sulla freccia verde per le mappe adiacenti.


METAR-TAF: